createdAt,value
2022-08-27T00:02:24.714Z,60.16
2022-08-27T00:04:53.358Z,60.10
2022-08-27T00:07:21.669Z,60.39
2022-08-27T00:09:49.836Z,60.49
2022-08-27T00:12:18.043Z,60.71
2022-08-27T00:14:47.815Z,60.90
2022-08-27T00:17:16.183Z,60.93
2022-08-27T00:19:44.642Z,60.95
2022-08-27T00:22:14.186Z,61.35
2022-08-27T00:24:48.846Z,61.43
2022-08-27T00:27:20.544Z,61.51
2022-08-27T00:29:50.316Z,61.75
2022-08-27T00:32:19.446Z,61.91
2022-08-27T00:34:50.901Z,62.00
2022-08-27T00:37:19.297Z,62.11
2022-08-27T00:39:47.431Z,62.47
2022-08-27T00:42:15.831Z,62.38
2022-08-27T00:44:44.139Z,62.74
2022-08-27T00:47:18.536Z,62.81
2022-08-27T00:49:53.926Z,62.96
2022-08-27T00:52:25.456Z,63.02
2022-08-27T00:55:01.711Z,63.04
2022-08-27T00:57:31.336Z,63.27
2022-08-27T00:59:59.491Z,63.47
2022-08-27T01:02:31.921Z,63.52
2022-08-27T01:05:04.502Z,63.78
2022-08-27T01:07:36.548Z,63.77
2022-08-27T01:10:08.477Z,64.05
2022-08-27T01:12:42.336Z,64.26
2022-08-27T01:15:19.359Z,64.27
2022-08-27T01:17:50.922Z,64.30
2022-08-27T01:20:30.631Z,64.38
2022-08-27T01:23:11.044Z,64.55
2022-08-27T01:25:43.349Z,64.78
2022-08-27T01:28:13.786Z,65.02
2022-08-27T01:30:42.655Z,65.05
2022-08-27T01:33:12.133Z,65.10
2022-08-27T01:35:40.624Z,65.44
2022-08-27T01:38:18.284Z,65.49
2022-08-27T01:41:04.009Z,65.70
2022-08-27T01:43:34.628Z,65.71
2022-08-27T01:46:02.748Z,65.95
2022-08-27T01:48:30.946Z,65.99
2022-08-27T01:50:59.183Z,66.11
2022-08-27T01:53:27.835Z,66.18
2022-08-27T01:55:56.372Z,66.40
2022-08-27T01:58:28.122Z,66.48
2022-08-27T02:00:59.464Z,66.69
2022-08-27T02:03:27.714Z,66.83
2022-08-27T02:06:08.863Z,66.74
2022-08-27T02:08:37.559Z,66.95
2022-08-27T02:11:06.673Z,67.14
2022-08-27T02:13:36.752Z,67.14
2022-08-27T02:16:05.738Z,67.27
2022-08-27T02:18:37.121Z,67.40
2022-08-27T02:21:05.550Z,67.49
2022-08-27T02:23:33.677Z,67.51
2022-08-27T02:26:01.753Z,67.71
2022-08-27T02:28:29.860Z,67.91
2022-08-27T02:30:59.377Z,68.05
2022-08-27T02:33:27.782Z,68.08
2022-08-27T02:35:56.035Z,68.16
2022-08-27T02:38:25.769Z,68.54
2022-08-27T02:40:54.933Z,68.28
2022-08-27T02:43:24.864Z,68.64
2022-08-27T02:45:53.730Z,68.67
2022-08-27T02:48:24.510Z,68.69
2022-08-27T02:50:52.840Z,68.85
2022-08-27T02:53:20.869Z,68.98
2022-08-27T02:55:50.340Z,69.19
2022-08-27T02:58:18.375Z,69.17
2022-08-27T03:00:47.107Z,69.19
2022-08-27T03:03:15.580Z,69.38
2022-08-27T03:05:45.374Z,69.58
2022-08-27T03:08:13.544Z,69.59
2022-08-27T03:10:42.093Z,69.59
2022-08-27T03:13:12.918Z,69.75
2022-08-27T03:15:40.974Z,69.56
2022-08-27T03:18:20.304Z,69.95
2022-08-27T03:20:51.938Z,69.96
2022-08-27T03:23:23.443Z,70.15
2022-08-27T03:25:56.199Z,70.36
2022-08-27T03:28:26.971Z,70.33
2022-08-27T03:31:00.523Z,70.30
2022-08-27T03:33:29.743Z,70.56
2022-08-27T03:35:59.890Z,70.68
2022-08-27T03:38:28.472Z,70.68
2022-08-27T03:40:59.833Z,70.71
2022-08-27T03:43:27.823Z,70.89
2022-08-27T03:46:05.632Z,71.12
2022-08-27T03:48:34.458Z,71.13
2022-08-27T03:51:08.063Z,71.15
2022-08-27T03:53:37.570Z,71.24
2022-08-27T03:56:06.475Z,71.24
2022-08-27T03:58:37.437Z,71.45
2022-08-27T04:01:08.510Z,71.55
2022-08-27T04:03:37.744Z,71.80
2022-08-27T04:06:07.839Z,71.76
2022-08-27T04:08:36.256Z,71.94
2022-08-27T04:11:06.864Z,71.85
2022-08-27T04:13:34.837Z,72.21
2022-08-27T04:16:02.892Z,72.07
2022-08-27T04:18:31.002Z,72.02
2022-08-27T04:20:59.393Z,72.38
2022-08-27T04:23:28.851Z,72.45
2022-08-27T04:25:56.843Z,72.34
2022-08-27T04:28:24.844Z,72.64
2022-08-27T04:30:53.081Z,72.63
2022-08-27T04:33:21.144Z,73.10
2022-08-27T04:35:49.403Z,72.72
2022-08-27T04:38:17.333Z,72.79
2022-08-27T04:41:04.192Z,73.09
2022-08-27T04:43:32.162Z,73.01
2022-08-27T04:46:00.348Z,72.99
2022-08-27T04:48:28.875Z,73.32
2022-08-27T04:50:57.150Z,73.31
2022-08-27T04:53:28.873Z,73.37
2022-08-27T04:55:59.069Z,73.36
2022-08-27T04:58:27.563Z,73.62
2022-08-27T05:00:59.728Z,73.42
2022-08-27T05:03:28.375Z,73.69
2022-08-27T05:06:01.979Z,73.82
2022-08-27T05:08:30.504Z,73.87
2022-08-27T05:11:02.484Z,73.81
2022-08-27T05:13:31.271Z,73.88
2022-08-27T05:16:03.644Z,74.09
2022-08-27T05:18:35.269Z,74.25
2022-08-27T05:21:07.344Z,74.16
2022-08-27T05:23:40.737Z,74.26
2022-08-27T05:26:12.251Z,74.36
2022-08-27T05:28:40.752Z,74.27
2022-08-27T05:31:11.413Z,74.51
2022-08-27T05:33:40.685Z,74.46
2022-08-27T05:36:15.767Z,74.59
2022-08-27T05:38:44.058Z,74.52
2022-08-27T05:41:16.119Z,74.94
2022-08-27T05:43:49.185Z,74.66
2022-08-27T05:46:20.624Z,74.75
2022-08-27T05:48:49.511Z,75.00
2022-08-27T05:51:25.273Z,74.91
2022-08-27T05:53:57.256Z,74.88
2022-08-27T05:56:28.516Z,74.97
2022-08-27T05:59:15.067Z,74.90
2022-08-27T06:01:46.450Z,75.22
2022-08-27T06:04:17.486Z,75.04
2022-08-27T06:06:46.394Z,75.24
2022-08-27T06:09:18.850Z,75.13
2022-08-27T06:11:49.074Z,75.15
2022-08-27T06:14:17.970Z,75.16
2022-08-27T06:16:46.008Z,75.27
2022-08-27T06:19:14.169Z,75.37
2022-08-27T06:21:43.156Z,75.18
2022-08-27T06:24:13.374Z,75.26
2022-08-27T06:26:43.239Z,75.39
2022-08-27T06:29:14.338Z,75.17
2022-08-27T06:31:43.017Z,75.42
2022-08-27T06:34:12.172Z,75.44
2022-08-27T06:36:42.699Z,75.47
2022-08-27T06:39:13.942Z,75.48
2022-08-27T06:41:44.183Z,75.52
2022-08-27T06:44:14.826Z,75.43
2022-08-27T06:46:43.951Z,75.55
2022-08-27T06:49:13.105Z,75.52
2022-08-27T06:51:46.135Z,75.25
2022-08-27T06:54:15.471Z,75.74
2022-08-27T06:56:44.860Z,75.62
2022-08-27T06:59:17.585Z,75.52
2022-08-27T07:01:49.559Z,75.58
2022-08-27T07:04:21.331Z,75.46
2022-08-27T07:06:50.800Z,75.61
2022-08-27T07:09:20.699Z,75.37
2022-08-27T07:11:51.726Z,75.78
2022-08-27T07:15:16.409Z,75.72
2022-08-27T07:17:46.743Z,75.51
2022-08-27T07:20:16.574Z,75.44
2022-08-27T07:22:45.825Z,75.42
2022-08-27T07:25:19.671Z,75.78
2022-08-27T07:27:48.058Z,75.42
2022-08-27T07:30:18.029Z,75.64
2022-08-27T07:32:48.542Z,75.61
2022-08-27T07:35:16.516Z,75.78
2022-08-27T07:37:44.796Z,75.57
2022-08-27T07:40:15.617Z,75.30
2022-08-27T07:43:24.701Z,75.48
2022-08-27T07:45:56.226Z,75.43
2022-08-27T07:48:26.617Z,75.42
2022-08-27T07:50:58.025Z,75.52
2022-08-27T07:53:26.540Z,75.08
2022-08-27T07:55:54.923Z,75.44
2022-08-27T07:58:22.963Z,75.13
2022-08-27T08:01:15.631Z,75.14
2022-08-27T08:03:45.840Z,75.39
2022-08-27T08:06:17.055Z,75.04
2022-08-27T08:08:45.430Z,75.14
2022-08-27T08:11:16.715Z,75.50
2022-08-27T08:13:45.852Z,75.37
2022-08-27T08:16:14.361Z,75.15
2022-08-27T08:18:42.360Z,75.44
2022-08-27T08:21:15.262Z,75.13
2022-08-27T08:23:44.546Z,75.36
2022-08-27T08:26:13.797Z,75.43
2022-08-27T08:28:42.631Z,75.09
2022-08-27T08:31:10.654Z,74.94
2022-08-27T08:33:39.419Z,74.93
2022-08-27T08:36:10.092Z,74.84
2022-08-27T08:38:41.042Z,74.82
2022-08-27T08:41:32.030Z,75.06
2022-08-27T08:44:05.528Z,74.94
2022-08-27T08:46:42.477Z,75.05
2022-08-27T08:49:30.442Z,74.98
2022-08-27T08:52:10.166Z,75.00
2022-08-27T08:54:47.755Z,74.87
2022-08-27T08:57:26.383Z,75.01
2022-08-27T09:00:01.929Z,74.64
2022-08-27T09:02:30.180Z,74.89
2022-08-27T09:05:04.021Z,74.54
2022-08-27T09:07:37.273Z,74.94
2022-08-27T09:10:14.228Z,74.75
2022-08-27T09:12:42.805Z,74.67
2022-08-27T09:15:17.184Z,74.96
2022-08-27T09:17:47.872Z,74.78
2022-08-27T09:20:21.060Z,74.49
2022-08-27T09:23:05.164Z,74.54
2022-08-27T09:25:37.149Z,74.87
2022-08-27T09:28:30.711Z,74.51
2022-08-27T09:31:06.655Z,74.43
2022-08-27T09:33:42.067Z,74.83
2022-08-27T09:36:23.880Z,74.74
2022-08-27T09:38:57.874Z,74.48
2022-08-27T09:41:33.452Z,74.71
2022-08-27T09:44:08.789Z,74.55
2022-08-27T09:46:37.243Z,74.42
2022-08-27T09:49:12.359Z,74.42
2022-08-27T09:51:43.576Z,74.41
2022-08-27T09:54:13.046Z,74.42
2022-08-27T09:56:49.535Z,74.59
2022-08-27T09:59:23.939Z,74.54
2022-08-27T10:01:54.207Z,74.27
2022-08-27T10:04:28.593Z,74.36
2022-08-27T10:07:00.187Z,74.35
2022-08-27T10:09:33.332Z,74.36
2022-08-27T10:12:10.863Z,74.18
2022-08-27T10:14:46.577Z,74.40
2022-08-27T10:17:23.574Z,74.05
2022-08-27T10:20:03.396Z,74.18
2022-08-27T10:22:41.714Z,74.42
2022-08-27T10:25:24.009Z,73.98
2022-08-27T10:28:05.186Z,73.90
2022-08-27T10:30:43.430Z,74.18
2022-08-27T10:33:23.379Z,73.79
2022-08-27T10:36:06.602Z,73.70
2022-08-27T10:38:47.056Z,73.63
2022-08-27T10:41:19.294Z,73.73
2022-08-27T10:44:24.823Z,73.84
2022-08-27T10:47:10.633Z,73.52
2022-08-27T10:49:48.038Z,73.63
2022-08-27T10:52:23.393Z,73.49
2022-08-27T10:54:58.167Z,73.22
2022-08-27T10:57:55.515Z,73.16
2022-08-27T11:00:36.308Z,72.73
2022-08-27T11:03:13.783Z,72.53
2022-08-27T11:05:46.571Z,72.65
2022-08-27T11:08:20.888Z,72.45
2022-08-27T11:10:57.866Z,72.61
2022-08-27T11:13:34.588Z,72.71
2022-08-27T11:16:21.274Z,72.20
2022-08-27T11:18:57.317Z,72.07
2022-08-27T11:21:34.701Z,71.99
2022-08-27T11:24:35.125Z,71.75
2022-08-27T11:27:11.834Z,71.62
2022-08-27T11:29:49.666Z,71.67
2022-08-27T11:32:31.418Z,71.51
2022-08-27T11:35:05.605Z,71.31
2022-08-27T11:37:56.708Z,70.89
2022-08-27T11:40:44.946Z,70.72
2022-08-27T11:43:18.479Z,70.39
2022-08-27T11:45:59.291Z,70.52
2022-08-27T11:48:32.044Z,70.38
2022-08-27T11:51:03.932Z,70.14
2022-08-27T11:53:33.851Z,70.15
2022-08-27T11:56:16.277Z,70.07
2022-08-27T11:58:52.812Z,69.74
2022-08-27T12:01:27.591Z,69.67
2022-08-27T12:04:06.514Z,69.72
2022-08-27T12:06:43.208Z,69.31
2022-08-27T12:09:17.244Z,68.99
2022-08-27T12:11:56.520Z,69.26
2022-08-27T12:14:43.999Z,69.04
2022-08-27T12:17:23.050Z,68.77
2022-08-27T12:20:06.101Z,68.54
2022-08-27T12:23:14.788Z,68.76
2022-08-27T12:25:43.309Z,68.72
2022-08-27T12:28:11.486Z,68.62
2022-08-27T12:30:42.912Z,68.48
2022-08-27T12:33:29.417Z,68.49
2022-08-27T12:36:05.388Z,68.40
2022-08-27T12:38:50.304Z,68.32
2022-08-27T12:41:32.100Z,68.01
2022-08-27T12:44:08.863Z,67.94
2022-08-27T12:46:45.738Z,67.80
2022-08-27T12:49:37.931Z,67.75
2022-08-27T12:52:23.848Z,67.87
2022-08-27T12:55:09.118Z,67.28
2022-08-27T12:57:45.234Z,67.27
2022-08-27T13:00:19.498Z,67.31
2022-08-27T13:03:14.331Z,67.14
2022-08-27T13:05:47.643Z,67.04
2022-08-27T13:08:25.742Z,66.99
2022-08-27T13:10:53.811Z,66.79
2022-08-27T13:13:24.431Z,66.60
2022-08-27T13:15:55.819Z,66.64
2022-08-27T13:18:24.937Z,66.50
2022-08-27T13:21:04.196Z,66.16
2022-08-27T13:23:35.386Z,66.48
2022-08-27T13:26:09.218Z,66.18
2022-08-27T13:28:41.160Z,66.10
2022-08-27T13:31:11.725Z,66.04
2022-08-27T13:33:42.419Z,65.96
2022-08-27T13:36:11.697Z,66.03
2022-08-27T13:38:49.789Z,65.74
2022-08-27T13:41:29.738Z,65.59
2022-08-27T13:43:59.758Z,65.62
2022-08-27T13:46:34.101Z,65.32
2022-08-27T13:49:02.756Z,65.56
2022-08-27T13:51:33.543Z,64.98
2022-08-27T13:54:16.115Z,65.09
2022-08-27T13:57:03.643Z,64.89
2022-08-27T13:59:33.263Z,64.99
2022-08-27T14:02:04.998Z,64.60
2022-08-27T14:04:40.825Z,64.78
2022-08-27T14:07:13.687Z,64.30
2022-08-27T14:09:54.635Z,64.14
2022-08-27T14:12:33.145Z,64.36
2022-08-27T14:15:22.421Z,64.35
2022-08-27T14:17:51.513Z,64.24
2022-08-27T14:20:23.151Z,64.11
2022-08-27T14:22:55.880Z,63.84
2022-08-27T14:25:25.534Z,63.55
2022-08-27T14:27:55.457Z,63.76
2022-08-27T14:30:29.137Z,63.73
2022-08-27T14:32:58.819Z,63.59
2022-08-27T14:35:30.002Z,63.24
2022-08-27T14:38:00.009Z,63.44
2022-08-27T14:40:32.942Z,62.99
2022-08-27T14:43:01.280Z,63.07
2022-08-27T14:45:29.506Z,63.00
2022-08-27T14:48:02.023Z,63.10
2022-08-27T14:50:30.884Z,62.89
2022-08-27T14:53:04.339Z,62.68
2022-08-27T14:55:34.459Z,62.67
2022-08-27T14:58:02.718Z,62.40
2022-08-27T15:00:31.407Z,62.46
2022-08-27T15:02:59.782Z,62.36
2022-08-27T15:05:28.537Z,62.34
2022-08-27T15:07:58.203Z,62.08
2022-08-27T15:10:26.768Z,61.89
2022-08-27T15:12:56.584Z,61.96
2022-08-27T15:15:26.179Z,61.97
2022-08-27T15:17:54.376Z,61.36
2022-08-27T15:20:22.775Z,61.43
2022-08-27T15:22:53.531Z,61.26
2022-08-27T15:25:22.431Z,61.54
2022-08-27T15:27:51.054Z,61.35
2022-08-27T15:30:26.190Z,61.19
2022-08-27T15:32:55.766Z,61.25
2022-08-27T15:35:27.469Z,61.39
2022-08-27T15:37:57.890Z,61.06
2022-08-27T15:40:32.971Z,60.85
2022-08-27T15:43:08.086Z,60.63
2022-08-27T15:45:39.958Z,60.82
2022-08-27T15:48:08.321Z,60.35
2022-08-27T15:50:36.680Z,60.32
2022-08-27T15:53:08.564Z,60.48
2022-08-27T15:55:40.585Z,60.35
2022-08-27T15:58:17.019Z,59.98
2022-08-27T16:01:04.236Z,60.07
2022-08-27T16:03:35.680Z,60.01
2022-08-27T16:06:05.568Z,59.63
2022-08-27T16:08:36.665Z,59.73
2022-08-27T16:11:05.350Z,59.52
2022-08-27T16:13:33.562Z,59.82
2022-08-27T16:16:03.228Z,59.58
2022-08-27T16:18:34.124Z,59.63
2022-08-27T16:21:04.224Z,59.59
2022-08-27T16:23:33.205Z,59.37
2022-08-27T16:26:02.023Z,59.55
2022-08-27T16:28:30.165Z,59.43
2022-08-27T16:30:58.919Z,59.35
2022-08-27T16:33:29.899Z,59.44
2022-08-27T16:35:58.178Z,59.17
2022-08-27T16:38:33.126Z,59.21
2022-08-27T16:41:01.530Z,59.02
2022-08-27T16:43:29.897Z,59.24
2022-08-27T16:46:03.611Z,59.30
2022-08-27T16:49:00.893Z,59.21
2022-08-27T16:51:32.616Z,59.43
2022-08-27T16:54:02.908Z,59.23
2022-08-27T16:56:36.888Z,59.23
2022-08-27T16:59:07.406Z,59.36
2022-08-27T17:01:38.326Z,59.28
2022-08-27T17:04:15.377Z,59.28
2022-08-27T17:06:51.699Z,59.46
2022-08-27T17:09:20.401Z,59.47
2022-08-27T17:11:54.751Z,59.51
2022-08-27T17:14:22.858Z,59.44
2022-08-27T17:16:54.083Z,59.42
2022-08-27T17:19:26.264Z,59.60
2022-08-27T17:21:55.444Z,59.65
2022-08-27T17:24:23.765Z,59.83
2022-08-27T17:26:51.999Z,59.66
2022-08-27T17:29:20.200Z,59.82
2022-08-27T17:31:48.443Z,59.74
2022-08-27T17:34:22.784Z,60.03
2022-08-27T17:36:53.974Z,59.82
2022-08-27T17:39:22.888Z,59.91
2022-08-27T17:41:52.986Z,59.98
2022-08-27T17:44:25.225Z,60.07
2022-08-27T17:46:55.953Z,60.13
2022-08-27T17:49:24.582Z,60.32
2022-08-27T17:51:58.339Z,60.37
2022-08-27T17:54:30.949Z,60.49
2022-08-27T17:56:59.463Z,60.63
2022-08-27T17:59:27.911Z,60.36
2022-08-27T18:01:56.680Z,60.52
2022-08-27T18:04:25.459Z,60.45
2022-08-27T18:06:54.753Z,60.72
2022-08-27T18:09:22.930Z,60.55
2022-08-27T18:11:51.084Z,60.95
2022-08-27T18:14:19.340Z,60.87
2022-08-27T18:16:47.785Z,60.66
2022-08-27T18:19:15.807Z,61.04
2022-08-27T18:21:46.937Z,60.98
2022-08-27T18:24:17.355Z,60.90
2022-08-27T18:26:47.044Z,61.14
2022-08-27T18:29:16.384Z,61.05
2022-08-27T18:31:44.970Z,61.32
2022-08-27T18:34:17.530Z,61.64
2022-08-27T18:36:48.327Z,61.66
2022-08-27T18:39:17.804Z,61.52
2022-08-27T18:41:46.062Z,61.43
2022-08-27T18:44:17.747Z,61.56
2022-08-27T18:46:46.395Z,61.44
2022-08-27T18:49:14.537Z,61.71
2022-08-27T18:51:48.085Z,61.78
2022-08-27T18:54:20.523Z,62.08
2022-08-27T18:56:48.860Z,61.90
2022-08-27T18:59:17.652Z,61.88
2022-08-27T19:01:46.294Z,62.03
2022-08-27T19:04:14.606Z,62.29
2022-08-27T19:06:45.217Z,62.56
2022-08-27T19:09:16.781Z,62.57
2022-08-27T19:11:46.188Z,62.60
2022-08-27T19:14:14.754Z,62.49
2022-08-27T19:16:47.110Z,62.46
2022-08-27T19:19:19.282Z,62.91
2022-08-27T19:21:51.344Z,62.74
2022-08-27T19:24:20.201Z,63.01
2022-08-27T19:26:50.652Z,63.12
2022-08-27T19:29:19.817Z,63.11
2022-08-27T19:31:48.326Z,63.26
2022-08-27T19:34:22.668Z,63.30
2022-08-27T19:36:50.802Z,63.50
2022-08-27T19:39:19.066Z,63.38
2022-08-27T19:41:50.110Z,63.55
2022-08-27T19:44:55.671Z,63.53
2022-08-27T19:47:27.869Z,63.68
2022-08-27T19:49:56.642Z,63.77
2022-08-27T19:52:25.242Z,63.88
2022-08-27T19:55:12.445Z,64.09
2022-08-27T19:57:43.375Z,64.10
2022-08-27T20:00:14.488Z,64.42
2022-08-27T20:02:42.517Z,64.22
2022-08-27T20:05:19.258Z,64.43
2022-08-27T20:07:48.384Z,64.53
2022-08-27T20:10:17.061Z,64.55
2022-08-27T20:12:47.810Z,64.56
2022-08-27T20:15:16.182Z,64.80
2022-08-27T20:17:45.237Z,64.92
2022-08-27T20:20:14.792Z,64.72
2022-08-27T20:22:43.246Z,65.04
2022-08-27T20:25:13.354Z,65.16
2022-08-27T20:27:44.463Z,65.31
2022-08-27T20:30:15.443Z,65.34
2022-08-27T20:32:43.485Z,65.42
2022-08-27T20:35:13.993Z,65.70
2022-08-27T20:37:42.770Z,65.74
2022-08-27T20:40:14.579Z,65.87
2022-08-27T20:42:42.608Z,65.81
2022-08-27T20:45:12.358Z,65.90
2022-08-27T20:47:43.412Z,66.02
2022-08-27T20:50:12.855Z,66.27
2022-08-27T20:52:41.393Z,66.19
2022-08-27T20:55:12.342Z,66.22
2022-08-27T20:58:04.508Z,66.35
2022-08-27T21:00:37.424Z,66.57
2022-08-27T21:03:07.512Z,66.67
2022-08-27T21:05:36.469Z,66.73
2022-08-27T21:08:06.436Z,66.95
2022-08-27T21:10:35.856Z,67.00
2022-08-27T21:13:09.873Z,67.25
2022-08-27T21:15:43.768Z,67.06
2022-08-27T21:18:15.816Z,67.19
2022-08-27T21:20:43.745Z,67.44
2022-08-27T21:23:11.627Z,67.47
2022-08-27T21:25:39.925Z,67.72
2022-08-27T21:28:09.742Z,67.73
2022-08-27T21:30:39.730Z,67.54
2022-08-27T21:33:08.154Z,67.87
2022-08-27T21:35:38.944Z,68.04
2022-08-27T21:38:06.988Z,68.12
2022-08-27T21:40:35.244Z,68.02
2022-08-27T21:43:03.626Z,68.38
2022-08-27T21:45:31.931Z,68.38
2022-08-27T21:47:59.874Z,68.36
2022-08-27T21:50:28.165Z,68.63
2022-08-27T21:52:59.817Z,68.67
2022-08-27T21:55:27.854Z,68.83
2022-08-27T21:57:55.928Z,68.81
2022-08-27T22:00:43.924Z,68.82
2022-08-27T22:03:15.381Z,68.83
2022-08-27T22:05:44.517Z,69.02
2022-08-27T22:08:16.870Z,69.03
2022-08-27T22:10:47.424Z,69.14
2022-08-27T22:13:15.839Z,69.10
2022-08-27T22:15:43.863Z,69.19
2022-08-27T22:18:12.858Z,69.18
2022-08-27T22:20:41.492Z,69.10
2022-08-27T22:23:12.572Z,69.28
2022-08-27T22:25:43.099Z,69.35
2022-08-27T22:28:11.760Z,69.25
2022-08-27T22:30:40.454Z,69.28
2022-08-27T22:33:09.036Z,69.51
2022-08-27T22:35:36.988Z,69.28
2022-08-27T22:38:09.115Z,69.42
2022-08-27T22:40:38.825Z,69.54
2022-08-27T22:43:08.785Z,69.67
2022-08-27T22:45:41.141Z,69.53
2022-08-27T22:48:09.585Z,69.54
2022-08-27T22:50:37.657Z,69.53
2022-08-27T22:53:06.368Z,69.62
2022-08-27T22:55:34.617Z,69.67
2022-08-27T22:58:03.098Z,69.67
2022-08-27T23:00:35.692Z,69.92
2022-08-27T23:03:07.077Z,69.81
2022-08-27T23:05:41.468Z,69.83
2022-08-27T23:08:13.375Z,69.95
2022-08-27T23:10:43.086Z,70.01
2022-08-27T23:13:11.914Z,69.97
2022-08-27T23:15:42.631Z,70.00
2022-08-27T23:18:10.809Z,69.95
2022-08-27T23:20:40.870Z,69.91
2022-08-27T23:23:10.192Z,70.03
2022-08-27T23:25:56.693Z,70.14
2022-08-27T23:28:25.164Z,70.22
2022-08-27T23:30:55.139Z,70.07
2022-08-27T23:33:23.522Z,70.03
2022-08-27T23:35:51.989Z,70.08
2022-08-27T23:38:22.188Z,70.32
2022-08-27T23:40:52.333Z,70.36
2022-08-27T23:43:22.003Z,70.07
2022-08-27T23:45:50.337Z,70.27
2022-08-27T23:48:20.628Z,70.00
2022-08-27T23:50:49.318Z,70.28
2022-08-27T23:53:17.426Z,70.38
2022-08-27T23:55:45.627Z,70.52
2022-08-27T23:58:14.159Z,70.46
